Delray Beach, FL

4:05 PM EDT on June 03, 2015 (GMT -0400)
Palm Beach International | | Change Station
CLOSE
Current Station
Airport
Location: West Palm Beach,
Elevation: 20 ft
Nearby Weather Stations

Elev 20 ft 26.68 °N, 80.10 °W | Updated 12 minutes ago

Mostly Cloudy
Mostly Cloudy
77 °F
Feels Like 77 °F
N
10
Wind Variable Wind from ENE

Today
High -- | Low -- °F
--% Chance of Precip.
Yesterday
High -- | Low -- °F
Precip. -- in
6:27 AM 8:09 PM
Full, 98% visible
Pressure 29.94 in
Visibility 10.0 miles
Clouds Few 1200 ft
Mostly Cloudy 3800 ft
Mostly Cloudy 5500 ft
Dew Point 72 °F
Humidity 84%
Rainfall 1.65 in
Snow Depth Not available.
UV 6 out of 12
Pollen .50 out of 12
Air Quality Not available.
Flu Activity Sporadic
METAR KPBI 031953Z 07009KT 10SM -RA FEW012 BKN038 BKN055 25/22 A2994 RMK AO2 RAE25B31 SLP137 CB DSNT SW P0002 T02500222 $

More Conditions Fewer Conditions

Pressure 29.94 in
Visibility 10.0 miles
Clouds Few 1200 ft
Mostly Cloudy 3800 ft
Mostly Cloudy 5500 ft
Dew Point 72 °F
Humidity 84%
Rainfall 1.65 in
Snow Depth Not available.
UV 6 out of 12
Pollen .50 out of 12
Air Quality Not available.
Flu Activity Sporadic
METAR KPBI 031953Z 07009KT 10SM -RA FEW012 BKN038 BKN055 25/22 A2994 RMK AO2 RAE25B31 SLP137 CB DSNT SW P0002 T02500222 $

More Conditions Fewer Conditions

Nowcast | as of 2:53 PM EDT on June 3, 2015

Scattered showers and an isolated thunderstorm or two will continue across parts of South Florida through the late afternoon. Areas most likely to be affected by the rain will be south of a Everglades City to West Palm Beach line, including most of the Southeast Florida Metro area. As the afternoon progresses, the showers and thunderstorms will gradually shift to the west and affect more of Collier County. Over the Atlantic, more widespread rain and scattered thunderstorms will occur mainly over the waters off of southern Miami-Dade County stretching all way to the western Bahamas. Mariners in these areas can expect locally gusty winds and rough seas.

×

10-Day Weather Forecast

×

Almanac

Astronomy

Jun. 03, 2015 Rise Set
Actual Time
Civil Twilight
Nautical Twilight
Astronomical Twilight
Moon
Length of Visible Light
Length of Day
Tomorrow will be .
, % of the Moon is Illuminated

Today's Extremes

State Highs State Lows

Community

WunderPhotos

Upload Photos

1,826,277 photos uploaded!

WunderBlogs® & News

Nearby

Air Quality

  Air Quality AQ Index Pollutant
Not available.

Snow Depth

Station Depth Elevation

Earthquake Activity

City Distance Mag. Time & Date
Minimum magnitude displayed is 2.5.

Coastal Water Temperatures

Place Temperature

Stations

Nearby Weather Stations

Station Location Temp. Windchill Dew Point Humidity Wind Precip. Elev Updated Type